sensor_id;sensor_type;location;lat;lon;timestamp;P1;durP1;ratioP1;P2;durP2;ratioP2
43606;SDS011;29197;44.788;10.366;2023-02-28T00:00:32;10.90;;;7.10;;
43606;SDS011;29197;44.788;10.366;2023-02-28T00:03:21;11.67;;;7.43;;
43606;SDS011;29197;44.788;10.366;2023-02-28T00:06:10;14.23;;;7.97;;
43606;SDS011;29197;44.788;10.366;2023-02-28T00:08:58;14.97;;;7.90;;
43606;SDS011;29197;44.788;10.366;2023-02-28T00:11:46;12.63;;;7.95;;
43606;SDS011;29197;44.788;10.366;2023-02-28T00:14:36;15.40;;;8.40;;
43606;SDS011;29197;44.788;10.366;2023-02-28T00:17:25;10.95;;;7.80;;
43606;SDS011;29197;44.788;10.366;2023-02-28T00:20:13;11.05;;;7.15;;
43606;SDS011;29197;44.788;10.366;2023-02-28T00:23:02;13.33;;;8.13;;
43606;SDS011;29197;44.788;10.366;2023-02-28T00:25:50;18.05;;;8.00;;
43606;SDS011;29197;44.788;10.366;2023-02-28T00:28:39;15.82;;;7.60;;
43606;SDS011;29197;44.788;10.366;2023-02-28T00:31:29;12.35;;;7.45;;
43606;SDS011;29197;44.788;10.366;2023-02-28T00:34:17;13.70;;;8.05;;
43606;SDS011;29197;44.788;10.366;2023-02-28T00:37:06;8.27;;;6.10;;
43606;SDS011;29197;44.788;10.366;2023-02-28T00:39:57;11.20;;;7.30;;
43606;SDS011;29197;44.788;10.366;2023-02-28T00:42:45;12.10;;;7.13;;
43606;SDS011;29197;44.788;10.366;2023-02-28T00:45:34;12.30;;;7.00;;
43606;SDS011;29197;44.788;10.366;2023-02-28T00:48:24;10.18;;;6.38;;
43606;SDS011;29197;44.788;10.366;2023-02-28T00:51:12;13.02;;;7.25;;
43606;SDS011;29197;44.788;10.366;2023-02-28T00:54:01;11.95;;;7.30;;
43606;SDS011;29197;44.788;10.366;2023-02-28T00:56:49;10.60;;;6.93;;
43606;SDS011;29197;44.788;10.366;2023-02-28T00:59:38;11.07;;;6.75;;
43606;SDS011;29197;44.788;10.366;2023-02-28T01:02:26;9.52;;;6.40;;
43606;SDS011;29197;44.788;10.366;2023-02-28T01:05:16;8.93;;;5.93;;
43606;SDS011;29197;44.788;10.366;2023-02-28T01:08:05;10.27;;;6.82;;
43606;SDS011;29197;44.788;10.366;2023-02-28T01:10:53;8.65;;;6.20;;
43606;SDS011;29197;44.788;10.366;2023-02-28T01:13:42;12.77;;;6.95;;
43606;SDS011;29197;44.788;10.366;2023-02-28T01:16:31;10.87;;;6.70;;
43606;SDS011;29197;44.788;10.366;2023-02-28T01:19:20;10.98;;;6.70;;
43606;SDS011;29197;44.788;10.366;2023-02-28T01:22:09;8.90;;;5.80;;
43606;SDS011;29197;44.788;10.366;2023-02-28T01:24:58;9.38;;;6.35;;
43606;SDS011;29197;44.788;10.366;2023-02-28T01:27:46;9.52;;;6.03;;
43606;SDS011;29197;44.788;10.366;2023-02-28T01:30:35;8.70;;;6.13;;
43606;SDS011;29197;44.788;10.366;2023-02-28T01:33:23;11.82;;;6.30;;
43606;SDS011;29197;44.788;10.366;2023-02-28T01:36:13;10.13;;;5.90;;
43606;SDS011;29197;44.788;10.366;2023-02-28T01:39:04;8.50;;;5.90;;
43606;SDS011;29197;44.788;10.366;2023-02-28T01:41:52;9.27;;;6.10;;
43606;SDS011;29197;44.788;10.366;2023-02-28T01:45:04;9.55;;;5.70;;
43606;SDS011;29197;44.788;10.366;2023-02-28T01:48:05;9.90;;;6.18;;
43606;SDS011;29197;44.788;10.366;2023-02-28T01:50:56;9.00;;;6.15;;
43606;SDS011;29197;44.788;10.366;2023-02-28T01:53:51;10.50;;;6.70;;
43606;SDS011;29197;44.788;10.366;2023-02-28T01:56:46;10.27;;;6.70;;
43606;SDS011;29197;44.788;10.366;2023-02-28T01:59:39;8.27;;;5.78;;
43606;SDS011;29197;44.788;10.366;2023-02-28T02:02:33;8.37;;;6.47;;
43606;SDS011;29197;44.788;10.366;2023-02-28T02:05:23;11.02;;;6.38;;
43606;SDS011;29197;44.788;10.366;2023-02-28T02:08:25;10.27;;;6.17;;
43606;SDS011;29197;44.788;10.366;2023-02-28T02:11:27;8.88;;;6.40;;
43606;SDS011;29197;44.788;10.366;2023-02-28T02:14:36;6.70;;;5.28;;
43606;SDS011;29197;44.788;10.366;2023-02-28T02:17:34;9.07;;;6.18;;
43606;SDS011;29197;44.788;10.366;2023-02-28T02:20:38;9.07;;;5.80;;
43606;SDS011;29197;44.788;10.366;2023-02-28T02:24:03;8.88;;;6.38;;
43606;SDS011;29197;44.788;10.366;2023-02-28T02:27:19;9.00;;;6.20;;
43606;SDS011;29197;44.788;10.366;2023-02-28T02:30:19;8.05;;;5.95;;
43606;SDS011;29197;44.788;10.366;2023-02-28T02:37:05;10.55;;;6.60;;
43606;SDS011;29197;44.788;10.366;2023-02-28T02:40:03;11.50;;;6.43;;
43606;SDS011;29197;44.788;10.366;2023-02-28T02:42:59;8.45;;;5.72;;
43606;SDS011;29197;44.788;10.366;2023-02-28T02:45:53;9.30;;;5.97;;
43606;SDS011;29197;44.788;10.366;2023-02-28T02:48:44;8.55;;;6.13;;
43606;SDS011;29197;44.788;10.366;2023-02-28T02:51:34;8.98;;;6.18;;
43606;SDS011;29197;44.788;10.366;2023-02-28T02:54:26;7.85;;;5.68;;
43606;SDS011;29197;44.788;10.366;2023-02-28T02:57:19;8.18;;;5.40;;
43606;SDS011;29197;44.788;10.366;2023-02-28T03:00:11;9.20;;;6.00;;
43606;SDS011;29197;44.788;10.366;2023-02-28T03:03:03;7.70;;;5.68;;
43606;SDS011;29197;44.788;10.366;2023-02-28T03:05:54;8.77;;;6.07;;
43606;SDS011;29197;44.788;10.366;2023-02-28T03:08:44;7.43;;;5.20;;
43606;SDS011;29197;44.788;10.366;2023-02-28T03:11:34;7.63;;;5.70;;
43606;SDS011;29197;44.788;10.366;2023-02-28T03:14:30;8.60;;;6.10;;
43606;SDS011;29197;44.788;10.366;2023-02-28T03:17:47;8.32;;;5.75;;
43606;SDS011;29197;44.788;10.366;2023-02-28T03:20:47;9.70;;;6.20;;
43606;SDS011;29197;44.788;10.366;2023-02-28T03:23:48;8.95;;;5.70;;
43606;SDS011;29197;44.788;10.366;2023-02-28T03:26:50;9.40;;;6.07;;
43606;SDS011;29197;44.788;10.366;2023-02-28T03:29:47;9.48;;;6.68;;
43606;SDS011;29197;44.788;10.366;2023-02-28T03:32:42;9.02;;;6.30;;
43606;SDS011;29197;44.788;10.366;2023-02-28T03:35:39;7.88;;;5.45;;
43606;SDS011;29197;44.788;10.366;2023-02-28T03:38:31;8.88;;;6.15;;
43606;SDS011;29197;44.788;10.366;2023-02-28T03:41:25;7.28;;;5.55;;
43606;SDS011;29197;44.788;10.366;2023-02-28T03:44:21;9.25;;;5.80;;
43606;SDS011;29197;44.788;10.366;2023-02-28T03:47:13;6.80;;;5.55;;
43606;SDS011;29197;44.788;10.366;2023-02-28T03:50:05;8.27;;;6.15;;
43606;SDS011;29197;44.788;10.366;2023-02-28T03:52:58;7.05;;;5.63;;
43606;SDS011;29197;44.788;10.366;2023-02-28T03:55:52;7.80;;;5.88;;
43606;SDS011;29197;44.788;10.366;2023-02-28T03:58:44;9.65;;;6.53;;
43606;SDS011;29197;44.788;10.366;2023-02-28T04:01:38;8.18;;;5.57;;
43606;SDS011;29197;44.788;10.366;2023-02-28T04:04:29;7.15;;;5.65;;
43606;SDS011;29197;44.788;10.366;2023-02-28T04:07:17;8.85;;;6.50;;
43606;SDS011;29197;44.788;10.366;2023-02-28T04:10:06;8.45;;;6.35;;
43606;SDS011;29197;44.788;10.366;2023-02-28T04:12:56;7.85;;;5.60;;
43606;SDS011;29197;44.788;10.366;2023-02-28T04:15:44;7.93;;;5.30;;
43606;SDS011;29197;44.788;10.366;2023-02-28T04:18:34;8.82;;;6.00;;
43606;SDS011;29197;44.788;10.366;2023-02-28T04:21:23;8.53;;;5.97;;
43606;SDS011;29197;44.788;10.366;2023-02-28T04:24:14;9.52;;;6.03;;
43606;SDS011;29197;44.788;10.366;2023-02-28T04:27:03;8.02;;;5.88;;
43606;SDS011;29197;44.788;10.366;2023-02-28T04:29:51;9.73;;;5.72;;
43606;SDS011;29197;44.788;10.366;2023-02-28T04:32:40;7.55;;;5.93;;
43606;SDS011;29197;44.788;10.366;2023-02-28T04:35:30;8.07;;;5.70;;
43606;SDS011;29197;44.788;10.366;2023-02-28T04:38:18;9.80;;;7.07;;
43606;SDS011;29197;44.788;10.366;2023-02-28T04:41:07;8.18;;;5.97;;
43606;SDS011;29197;44.788;10.366;2023-02-28T04:43:55;8.95;;;6.35;;
43606;SDS011;29197;44.788;10.366;2023-02-28T04:46:44;9.50;;;5.85;;
43606;SDS011;29197;44.788;10.366;2023-02-28T04:49:32;7.40;;;5.25;;
43606;SDS011;29197;44.788;10.366;2023-02-28T04:52:22;6.97;;;5.80;;
43606;SDS011;29197;44.788;10.366;2023-02-28T04:55:11;8.13;;;6.53;;
43606;SDS011;29197;44.788;10.366;2023-02-28T04:57:59;7.97;;;5.75;;
43606;SDS011;29197;44.788;10.366;2023-02-28T05:00:48;7.28;;;6.00;;
43606;SDS011;29197;44.788;10.366;2023-02-28T05:03:36;9.52;;;6.22;;
43606;SDS011;29197;44.788;10.366;2023-02-28T05:06:26;9.10;;;6.25;;
43606;SDS011;29197;44.788;10.366;2023-02-28T05:09:17;7.33;;;5.60;;
43606;SDS011;29197;44.788;10.366;2023-02-28T05:12:06;7.47;;;5.63;;
43606;SDS011;29197;44.788;10.366;2023-02-28T05:14:56;10.23;;;6.97;;
43606;SDS011;29197;44.788;10.366;2023-02-28T05:17:44;8.48;;;6.45;;
43606;SDS011;29197;44.788;10.366;2023-02-28T05:20:33;7.40;;;5.75;;
43606;SDS011;29197;44.788;10.366;2023-02-28T05:23:21;7.90;;;6.28;;
43606;SDS011;29197;44.788;10.366;2023-02-28T05:26:12;7.95;;;6.22;;
43606;SDS011;29197;44.788;10.366;2023-02-28T05:29:00;8.02;;;5.82;;
43606;SDS011;29197;44.788;10.366;2023-02-28T05:31:49;8.38;;;6.47;;
43606;SDS011;29197;44.788;10.366;2023-02-28T05:34:38;8.05;;;6.20;;
43606;SDS011;29197;44.788;10.366;2023-02-28T05:37:27;7.97;;;5.97;;
43606;SDS011;29197;44.788;10.366;2023-02-28T05:40:15;7.53;;;6.00;;
43606;SDS011;29197;44.788;10.366;2023-02-28T05:43:10;9.68;;;6.65;;
43606;SDS011;29197;44.788;10.366;2023-02-28T05:46:01;9.15;;;6.68;;
43606;SDS011;29197;44.788;10.366;2023-02-28T05:48:50;7.60;;;5.60;;
43606;SDS011;29197;44.788;10.366;2023-02-28T05:51:39;8.20;;;6.32;;
43606;SDS011;29197;44.788;10.366;2023-02-28T05:54:27;10.10;;;7.13;;
43606;SDS011;29197;44.788;10.366;2023-02-28T05:57:16;10.20;;;7.18;;
43606;SDS011;29197;44.788;10.366;2023-02-28T06:00:12;9.10;;;6.53;;
43606;SDS011;29197;44.788;10.366;2023-02-28T06:03:04;9.27;;;6.38;;
43606;SDS011;29197;44.788;10.366;2023-02-28T06:05:53;10.70;;;7.18;;
43606;SDS011;29197;44.788;10.366;2023-02-28T06:08:41;12.32;;;7.70;;
43606;SDS011;29197;44.788;10.366;2023-02-28T06:11:31;10.65;;;7.40;;
43606;SDS011;29197;44.788;10.366;2023-02-28T06:14:20;9.35;;;7.55;;
43606;SDS011;29197;44.788;10.366;2023-02-28T06:17:10;11.48;;;7.75;;
43606;SDS011;29197;44.788;10.366;2023-02-28T06:19:58;13.60;;;7.85;;
43606;SDS011;29197;44.788;10.366;2023-02-28T06:22:47;12.10;;;8.52;;
43606;SDS011;29197;44.788;10.366;2023-02-28T06:25:37;10.68;;;7.90;;
43606;SDS011;29197;44.788;10.366;2023-02-28T06:28:25;12.90;;;8.80;;
43606;SDS011;29197;44.788;10.366;2023-02-28T06:31:14;12.23;;;8.70;;
43606;SDS011;29197;44.788;10.366;2023-02-28T06:34:06;13.43;;;8.65;;
43606;SDS011;29197;44.788;10.366;2023-02-28T06:36:54;12.50;;;8.95;;
43606;SDS011;29197;44.788;10.366;2023-02-28T06:39:43;14.30;;;9.43;;
43606;SDS011;29197;44.788;10.366;2023-02-28T06:42:32;14.27;;;8.97;;
43606;SDS011;29197;44.788;10.366;2023-02-28T06:45:20;14.93;;;9.40;;
43606;SDS011;29197;44.788;10.366;2023-02-28T06:48:09;13.90;;;9.40;;
43606;SDS011;29197;44.788;10.366;2023-02-28T06:51:03;13.73;;;9.03;;
43606;SDS011;29197;44.788;10.366;2023-02-28T06:53:52;12.37;;;8.77;;
43606;SDS011;29197;44.788;10.366;2023-02-28T06:56:41;12.93;;;9.07;;
43606;SDS011;29197;44.788;10.366;2023-02-28T06:59:30;12.10;;;8.10;;
43606;SDS011;29197;44.788;10.366;2023-02-28T07:02:18;13.20;;;9.60;;
43606;SDS011;29197;44.788;10.366;2023-02-28T07:05:07;14.85;;;9.85;;
43606;SDS011;29197;44.788;10.366;2023-02-28T07:07:57;12.23;;;9.38;;
43606;SDS011;29197;44.788;10.366;2023-02-28T07:10:46;13.60;;;9.00;;
43606;SDS011;29197;44.788;10.366;2023-02-28T07:13:34;12.00;;;8.85;;
43606;SDS011;29197;44.788;10.366;2023-02-28T07:16:23;11.80;;;8.63;;
43606;SDS011;29197;44.788;10.366;2023-02-28T07:19:13;12.73;;;8.57;;
43606;SDS011;29197;44.788;10.366;2023-02-28T07:22:01;11.90;;;8.68;;
43606;SDS011;29197;44.788;10.366;2023-02-28T07:24:51;11.57;;;8.48;;
43606;SDS011;29197;44.788;10.366;2023-02-28T07:27:39;11.73;;;8.40;;
43606;SDS011;29197;44.788;10.366;2023-02-28T07:30:28;10.07;;;8.20;;
43606;SDS011;29197;44.788;10.366;2023-02-28T07:33:16;10.37;;;7.93;;
43606;SDS011;29197;44.788;10.366;2023-02-28T07:36:06;10.82;;;8.35;;
43606;SDS011;29197;44.788;10.366;2023-02-28T07:38:56;10.98;;;7.75;;
43606;SDS011;29197;44.788;10.366;2023-02-28T07:41:47;11.25;;;8.15;;
43606;SDS011;29197;44.788;10.366;2023-02-28T07:44:36;12.90;;;8.52;;
43606;SDS011;29197;44.788;10.366;2023-02-28T07:47:28;10.60;;;7.80;;
43606;SDS011;29197;44.788;10.366;2023-02-28T07:50:17;10.02;;;7.35;;
43606;SDS011;29197;44.788;10.366;2023-02-28T07:53:06;12.32;;;7.90;;
43606;SDS011;29197;44.788;10.366;2023-02-28T07:55:54;11.93;;;8.02;;
43606;SDS011;29197;44.788;10.366;2023-02-28T07:58:45;10.73;;;7.95;;
43606;SDS011;29197;44.788;10.366;2023-02-28T08:01:33;12.93;;;8.60;;
43606;SDS011;29197;44.788;10.366;2023-02-28T08:04:22;11.73;;;8.38;;
43606;SDS011;29197;44.788;10.366;2023-02-28T08:07:12;11.60;;;8.07;;
43606;SDS011;29197;44.788;10.366;2023-02-28T08:10:00;10.32;;;7.88;;
43606;SDS011;29197;44.788;10.366;2023-02-28T08:12:49;14.60;;;12.55;;
43606;SDS011;29197;44.788;10.366;2023-02-28T08:15:39;12.25;;;9.02;;
43606;SDS011;29197;44.788;10.366;2023-02-28T08:18:28;11.23;;;8.05;;
43606;SDS011;29197;44.788;10.366;2023-02-28T08:21:17;13.20;;;8.52;;
43606;SDS011;29197;44.788;10.366;2023-02-28T08:24:07;13.38;;;9.23;;
43606;SDS011;29197;44.788;10.366;2023-02-28T08:26:55;13.93;;;9.93;;
43606;SDS011;29197;44.788;10.366;2023-02-28T08:29:44;18.05;;;12.77;;
43606;SDS011;29197;44.788;10.366;2023-02-28T08:32:34;15.10;;;9.75;;
43606;SDS011;29197;44.788;10.366;2023-02-28T08:35:23;14.85;;;10.10;;
43606;SDS011;29197;44.788;10.366;2023-02-28T08:38:11;17.77;;;11.33;;
43606;SDS011;29197;44.788;10.366;2023-02-28T08:41:01;22.77;;;11.10;;
43606;SDS011;29197;44.788;10.366;2023-02-28T08:43:52;16.05;;;10.65;;
43606;SDS011;29197;44.788;10.366;2023-02-28T08:46:41;16.50;;;10.63;;
43606;SDS011;29197;44.788;10.366;2023-02-28T08:49:31;13.67;;;9.53;;
43606;SDS011;29197;44.788;10.366;2023-02-28T08:52:19;14.50;;;9.87;;
43606;SDS011;29197;44.788;10.366;2023-02-28T08:55:08;12.60;;;9.40;;
43606;SDS011;29197;44.788;10.366;2023-02-28T08:57:57;13.02;;;9.85;;
43606;SDS011;29197;44.788;10.366;2023-02-28T09:00:45;14.23;;;9.85;;
43606;SDS011;29197;44.788;10.366;2023-02-28T09:03:34;16.35;;;11.40;;
43606;SDS011;29197;44.788;10.366;2023-02-28T09:06:25;16.20;;;10.63;;
43606;SDS011;29197;44.788;10.366;2023-02-28T09:09:15;16.42;;;11.05;;
43606;SDS011;29197;44.788;10.366;2023-02-28T09:12:03;13.82;;;9.95;;
43606;SDS011;29197;44.788;10.366;2023-02-28T09:14:52;15.77;;;11.07;;
43606;SDS011;29197;44.788;10.366;2023-02-28T09:17:41;11.43;;;8.57;;
43606;SDS011;29197;44.788;10.366;2023-02-28T09:20:32;14.05;;;9.23;;
43606;SDS011;29197;44.788;10.366;2023-02-28T09:23:22;14.23;;;9.70;;
43606;SDS011;29197;44.788;10.366;2023-02-28T09:26:13;11.07;;;7.97;;
43606;SDS011;29197;44.788;10.366;2023-02-28T09:29:02;12.98;;;9.23;;
43606;SDS011;29197;44.788;10.366;2023-02-28T09:31:50;13.40;;;9.20;;
43606;SDS011;29197;44.788;10.366;2023-02-28T09:34:39;16.02;;;10.25;;
43606;SDS011;29197;44.788;10.366;2023-02-28T09:37:27;13.95;;;10.05;;
43606;SDS011;29197;44.788;10.366;2023-02-28T09:40:19;10.82;;;7.95;;
43606;SDS011;29197;44.788;10.366;2023-02-28T09:43:09;15.60;;;10.30;;
43606;SDS011;29197;44.788;10.366;2023-02-28T09:46:06;12.52;;;9.27;;
43606;SDS011;29197;44.788;10.366;2023-02-28T09:49:02;13.43;;;8.80;;
43606;SDS011;29197;44.788;10.366;2023-02-28T09:51:55;13.77;;;9.48;;
43606;SDS011;29197;44.788;10.366;2023-02-28T09:54:47;10.47;;;8.03;;
43606;SDS011;29197;44.788;10.366;2023-02-28T09:57:37;10.07;;;7.70;;
43606;SDS011;29197;44.788;10.366;2023-02-28T10:00:30;10.38;;;7.50;;
43606;SDS011;29197;44.788;10.366;2023-02-28T10:03:25;14.27;;;9.82;;
43606;SDS011;29197;44.788;10.366;2023-02-28T10:06:18;13.57;;;8.98;;
43606;SDS011;29197;44.788;10.366;2023-02-28T10:09:10;12.43;;;9.10;;
43606;SDS011;29197;44.788;10.366;2023-02-28T10:12:04;12.30;;;9.65;;
43606;SDS011;29197;44.788;10.366;2023-02-28T10:14:57;16.33;;;10.95;;
43606;SDS011;29197;44.788;10.366;2023-02-28T10:17:49;13.68;;;9.68;;
43606;SDS011;29197;44.788;10.366;2023-02-28T10:20:54;10.98;;;8.18;;
43606;SDS011;29197;44.788;10.366;2023-02-28T10:23:44;15.23;;;9.85;;
43606;SDS011;29197;44.788;10.366;2023-02-28T10:26:35;13.90;;;10.70;;
43606;SDS011;29197;44.788;10.366;2023-02-28T10:29:24;13.35;;;9.65;;
43606;SDS011;29197;44.788;10.366;2023-02-28T10:32:15;10.95;;;8.30;;
43606;SDS011;29197;44.788;10.366;2023-02-28T10:35:09;13.30;;;9.60;;
43606;SDS011;29197;44.788;10.366;2023-02-28T10:38:05;10.00;;;7.95;;
43606;SDS011;29197;44.788;10.366;2023-02-28T10:41:04;10.48;;;7.88;;
43606;SDS011;29197;44.788;10.366;2023-02-28T10:43:53;9.77;;;7.40;;
43606;SDS011;29197;44.788;10.366;2023-02-28T10:47:01;11.98;;;8.75;;
43606;SDS011;29197;44.788;10.366;2023-02-28T10:49:51;11.35;;;8.40;;
43606;SDS011;29197;44.788;10.366;2023-02-28T10:52:40;12.65;;;8.65;;
43606;SDS011;29197;44.788;10.366;2023-02-28T10:55:29;12.02;;;9.00;;
43606;SDS011;29197;44.788;10.366;2023-02-28T10:58:21;9.23;;;7.53;;
43606;SDS011;29197;44.788;10.366;2023-02-28T11:01:12;9.20;;;7.10;;
43606;SDS011;29197;44.788;10.366;2023-02-28T11:04:03;13.38;;;8.77;;
43606;SDS011;29197;44.788;10.366;2023-02-28T11:07:06;8.77;;;7.20;;
43606;SDS011;29197;44.788;10.366;2023-02-28T11:10:16;10.65;;;7.50;;
43606;SDS011;29197;44.788;10.366;2023-02-28T11:13:13;9.35;;;7.13;;
43606;SDS011;29197;44.788;10.366;2023-02-28T11:16:06;12.35;;;8.63;;
43606;SDS011;29197;44.788;10.366;2023-02-28T11:18:58;11.63;;;8.90;;
43606;SDS011;29197;44.788;10.366;2023-02-28T11:21:48;10.15;;;7.50;;
43606;SDS011;29197;44.788;10.366;2023-02-28T11:24:43;10.93;;;8.18;;
43606;SDS011;29197;44.788;10.366;2023-02-28T11:27:46;10.27;;;8.07;;
43606;SDS011;29197;44.788;10.366;2023-02-28T11:30:36;13.18;;;9.48;;
43606;SDS011;29197;44.788;10.366;2023-02-28T11:33:27;13.55;;;10.02;;
43606;SDS011;29197;44.788;10.366;2023-02-28T11:36:20;15.27;;;9.60;;
43606;SDS011;29197;44.788;10.366;2023-02-28T11:39:19;16.73;;;9.98;;
43606;SDS011;29197;44.788;10.366;2023-02-28T11:42:15;12.68;;;9.52;;
43606;SDS011;29197;44.788;10.366;2023-02-28T11:45:33;13.35;;;9.98;;
43606;SDS011;29197;44.788;10.366;2023-02-28T11:48:32;14.07;;;9.85;;
43606;SDS011;29197;44.788;10.366;2023-02-28T11:51:27;11.77;;;8.55;;
43606;SDS011;29197;44.788;10.366;2023-02-28T11:57:35;13.32;;;10.07;;
43606;SDS011;29197;44.788;10.366;2023-02-28T12:00:43;11.45;;;9.00;;
43606;SDS011;29197;44.788;10.366;2023-02-28T12:03:48;15.00;;;10.23;;
43606;SDS011;29197;44.788;10.366;2023-02-28T12:06:48;13.45;;;9.77;;
43606;SDS011;29197;44.788;10.366;2023-02-28T12:09:46;12.93;;;9.40;;
43606;SDS011;29197;44.788;10.366;2023-02-28T12:12:46;14.47;;;9.97;;
43606;SDS011;29197;44.788;10.366;2023-02-28T12:15:47;12.70;;;9.30;;
43606;SDS011;29197;44.788;10.366;2023-02-28T12:19:08;13.85;;;10.05;;
43606;SDS011;29197;44.788;10.366;2023-02-28T12:28:33;14.55;;;10.15;;
43606;SDS011;29197;44.788;10.366;2023-02-28T12:31:26;14.60;;;10.32;;
43606;SDS011;29197;44.788;10.366;2023-02-28T12:34:18;15.05;;;10.00;;
43606;SDS011;29197;44.788;10.366;2023-02-28T12:37:10;13.65;;;9.90;;
43606;SDS011;29197;44.788;10.366;2023-02-28T12:40:03;15.70;;;10.83;;
43606;SDS011;29197;44.788;10.366;2023-02-28T12:42:59;11.30;;;8.82;;
43606;SDS011;29197;44.788;10.366;2023-02-28T12:45:53;14.57;;;10.07;;
43606;SDS011;29197;44.788;10.366;2023-02-28T12:48:47;11.68;;;9.63;;
43606;SDS011;29197;44.788;10.366;2023-02-28T12:51:40;14.45;;;9.98;;
43606;SDS011;29197;44.788;10.366;2023-02-28T12:54:30;13.27;;;9.07;;
43606;SDS011;29197;44.788;10.366;2023-02-28T12:57:25;14.30;;;9.70;;
43606;SDS011;29197;44.788;10.366;2023-02-28T13:00:21;12.50;;;8.63;;
43606;SDS011;29197;44.788;10.366;2023-02-28T13:03:28;14.23;;;10.23;;
43606;SDS011;29197;44.788;10.366;2023-02-28T13:06:34;12.43;;;9.95;;
43606;SDS011;29197;44.788;10.366;2023-02-28T13:09:37;14.60;;;9.93;;
43606;SDS011;29197;44.788;10.366;2023-02-28T13:12:25;13.75;;;9.55;;
43606;SDS011;29197;44.788;10.366;2023-02-28T13:15:17;13.32;;;9.82;;
43606;SDS011;29197;44.788;10.366;2023-02-28T13:18:24;12.47;;;9.97;;
43606;SDS011;29197;44.788;10.366;2023-02-28T13:21:23;12.82;;;9.48;;
43606;SDS011;29197;44.788;10.366;2023-02-28T13:27:36;14.18;;;10.02;;
43606;SDS011;29197;44.788;10.366;2023-02-28T13:34:11;13.47;;;10.20;;
43606;SDS011;29197;44.788;10.366;2023-02-28T13:40:26;14.25;;;10.80;;
43606;SDS011;29197;44.788;10.366;2023-02-28T13:43:23;14.17;;;10.53;;
43606;SDS011;29197;44.788;10.366;2023-02-28T13:50:18;15.52;;;10.63;;
43606;SDS011;29197;44.788;10.366;2023-02-28T13:56:40;15.05;;;10.52;;
43606;SDS011;29197;44.788;10.366;2023-02-28T13:59:37;14.95;;;10.75;;
43606;SDS011;29197;44.788;10.366;2023-02-28T14:02:42;15.93;;;10.80;;
43606;SDS011;29197;44.788;10.366;2023-02-28T14:06:15;14.95;;;11.10;;
43606;SDS011;29197;44.788;10.366;2023-02-28T14:09:15;13.82;;;10.48;;
43606;SDS011;29197;44.788;10.366;2023-02-28T14:15:39;14.75;;;10.98;;
43606;SDS011;29197;44.788;10.366;2023-02-28T14:18:38;15.02;;;10.85;;
43606;SDS011;29197;44.788;10.366;2023-02-28T14:21:32;14.43;;;11.90;;
43606;SDS011;29197;44.788;10.366;2023-02-28T14:24:24;17.20;;;12.15;;
43606;SDS011;29197;44.788;10.366;2023-02-28T14:27:33;14.73;;;11.15;;
43606;SDS011;29197;44.788;10.366;2023-02-28T14:30:43;17.00;;;11.75;;
43606;SDS011;29197;44.788;10.366;2023-02-28T14:33:55;14.93;;;11.05;;
43606;SDS011;29197;44.788;10.366;2023-02-28T14:36:53;15.52;;;12.00;;
43606;SDS011;29197;44.788;10.366;2023-02-28T14:39:46;17.30;;;12.27;;
43606;SDS011;29197;44.788;10.366;2023-02-28T14:42:36;19.30;;;13.57;;
43606;SDS011;29197;44.788;10.366;2023-02-28T14:45:29;15.47;;;11.73;;
43606;SDS011;29197;44.788;10.366;2023-02-28T14:48:20;16.65;;;12.60;;
43606;SDS011;29197;44.788;10.366;2023-02-28T14:51:11;17.50;;;12.63;;
43606;SDS011;29197;44.788;10.366;2023-02-28T14:54:07;17.58;;;12.98;;
43606;SDS011;29197;44.788;10.366;2023-02-28T14:57:02;15.45;;;11.68;;
43606;SDS011;29197;44.788;10.366;2023-02-28T14:59:58;15.38;;;12.10;;
43606;SDS011;29197;44.788;10.366;2023-02-28T15:02:50;14.57;;;11.50;;
43606;SDS011;29197;44.788;10.366;2023-02-28T15:05:39;15.93;;;11.68;;
43606;SDS011;29197;44.788;10.366;2023-02-28T15:08:28;15.38;;;11.50;;
43606;SDS011;29197;44.788;10.366;2023-02-28T15:11:22;16.07;;;11.77;;
43606;SDS011;29197;44.788;10.366;2023-02-28T15:14:13;18.27;;;12.30;;
43606;SDS011;29197;44.788;10.366;2023-02-28T15:17:07;16.88;;;12.23;;
43606;SDS011;29197;44.788;10.366;2023-02-28T15:20:10;16.35;;;12.30;;
43606;SDS011;29197;44.788;10.366;2023-02-28T15:23:01;16.10;;;12.15;;
43606;SDS011;29197;44.788;10.366;2023-02-28T15:25:50;27.45;;;18.40;;
43606;SDS011;29197;44.788;10.366;2023-02-28T15:28:42;19.45;;;13.52;;
43606;SDS011;29197;44.788;10.366;2023-02-28T15:31:31;17.73;;;13.43;;
43606;SDS011;29197;44.788;10.366;2023-02-28T15:34:43;19.27;;;13.43;;
43606;SDS011;29197;44.788;10.366;2023-02-28T15:37:45;15.80;;;12.55;;
43606;SDS011;29197;44.788;10.366;2023-02-28T15:40:36;18.88;;;13.05;;
43606;SDS011;29197;44.788;10.366;2023-02-28T15:43:26;17.90;;;12.95;;
43606;SDS011;29197;44.788;10.366;2023-02-28T15:46:18;18.20;;;12.85;;
43606;SDS011;29197;44.788;10.366;2023-02-28T15:49:12;17.52;;;13.13;;
43606;SDS011;29197;44.788;10.366;2023-02-28T15:52:09;21.07;;;13.93;;
43606;SDS011;29197;44.788;10.366;2023-02-28T15:55:07;17.80;;;13.13;;
43606;SDS011;29197;44.788;10.366;2023-02-28T15:58:00;20.30;;;14.07;;
43606;SDS011;29197;44.788;10.366;2023-02-28T16:01:00;24.67;;;15.15;;
43606;SDS011;29197;44.788;10.366;2023-02-28T16:03:54;21.10;;;14.02;;
43606;SDS011;29197;44.788;10.366;2023-02-28T16:06:53;22.30;;;14.25;;
43606;SDS011;29197;44.788;10.366;2023-02-28T16:09:49;23.92;;;15.57;;
43606;SDS011;29197;44.788;10.366;2023-02-28T16:12:38;27.02;;;15.73;;
43606;SDS011;29197;44.788;10.366;2023-02-28T16:15:28;19.75;;;14.50;;
43606;SDS011;29197;44.788;10.366;2023-02-28T16:18:18;20.02;;;14.43;;
43606;SDS011;29197;44.788;10.366;2023-02-28T16:21:09;21.42;;;14.98;;
43606;SDS011;29197;44.788;10.366;2023-02-28T16:23:57;21.02;;;15.05;;
43606;SDS011;29197;44.788;10.366;2023-02-28T16:26:46;27.65;;;17.15;;
43606;SDS011;29197;44.788;10.366;2023-02-28T16:29:38;21.43;;;14.80;;
43606;SDS011;29197;44.788;10.366;2023-02-28T16:32:27;19.85;;;14.50;;
43606;SDS011;29197;44.788;10.366;2023-02-28T16:35:16;18.75;;;13.43;;
43606;SDS011;29197;44.788;10.366;2023-02-28T16:38:06;20.08;;;14.63;;
43606;SDS011;29197;44.788;10.366;2023-02-28T16:40:57;19.07;;;13.83;;
43606;SDS011;29197;44.788;10.366;2023-02-28T16:43:47;19.25;;;14.27;;
43606;SDS011;29197;44.788;10.366;2023-02-28T16:46:37;20.55;;;14.15;;
43606;SDS011;29197;44.788;10.366;2023-02-28T16:49:26;20.17;;;14.55;;
43606;SDS011;29197;44.788;10.366;2023-02-28T16:52:14;21.48;;;14.30;;
43606;SDS011;29197;44.788;10.366;2023-02-28T16:55:05;19.23;;;13.75;;
43606;SDS011;29197;44.788;10.366;2023-02-28T16:57:55;19.60;;;14.13;;
43606;SDS011;29197;44.788;10.366;2023-02-28T17:00:45;19.13;;;14.20;;
43606;SDS011;29197;44.788;10.366;2023-02-28T17:03:33;23.17;;;14.50;;
43606;SDS011;29197;44.788;10.366;2023-02-28T17:06:23;19.70;;;14.02;;
43606;SDS011;29197;44.788;10.366;2023-02-28T17:09:15;21.48;;;14.88;;
43606;SDS011;29197;44.788;10.366;2023-02-28T17:12:08;22.35;;;15.45;;
43606;SDS011;29197;44.788;10.366;2023-02-28T17:14:58;21.25;;;15.27;;
43606;SDS011;29197;44.788;10.366;2023-02-28T17:17:47;23.90;;;15.75;;
43606;SDS011;29197;44.788;10.366;2023-02-28T17:20:36;20.98;;;14.73;;
43606;SDS011;29197;44.788;10.366;2023-02-28T17:23:24;27.08;;;16.58;;